sensor_id;sensor_type;location;lat;lon;timestamp;temperature;humidity
70708;SHT30;58277;47.316;18.908;2023-02-28T00:02:01;1.33;57.43
70708;SHT30;58277;47.316;18.908;2023-02-28T00:04:23;1.28;57.34
70708;SHT30;58277;47.316;18.908;2023-02-28T00:06:46;1.30;57.67
70708;SHT30;58277;47.316;18.908;2023-02-28T00:09:08;1.30;57.78
70708;SHT30;58277;47.316;18.908;2023-02-28T00:11:31;1.37;57.64
70708;SHT30;58277;47.316;18.908;2023-02-28T00:13:54;1.31;57.69
70708;SHT30;58277;47.316;18.908;2023-02-28T00:16:19;1.38;58.04
70708;SHT30;58277;47.316;18.908;2023-02-28T00:18:43;1.38;58.01
70708;SHT30;58277;47.316;18.908;2023-02-28T00:21:06;1.38;58.35
70708;SHT30;58277;47.316;18.908;2023-02-28T00:23:29;1.43;58.56
70708;SHT30;58277;47.316;18.908;2023-02-28T00:25:51;1.38;58.19
70708;SHT30;58277;47.316;18.908;2023-02-28T00:28:14;1.41;58.36
70708;SHT30;58277;47.316;18.908;2023-02-28T00:30:37;1.47;59.42
70708;SHT30;58277;47.316;18.908;2023-02-28T00:33:00;1.54;57.86
70708;SHT30;58277;47.316;18.908;2023-02-28T00:35:22;1.50;57.85
70708;SHT30;58277;47.316;18.908;2023-02-28T00:37:45;1.52;58.02
70708;SHT30;58277;47.316;18.908;2023-02-28T00:40:08;1.50;58.20
70708;SHT30;58277;47.316;18.908;2023-02-28T00:42:35;1.52;57.50
70708;SHT30;58277;47.316;18.908;2023-02-28T00:44:58;1.48;58.28
70708;SHT30;58277;47.316;18.908;2023-02-28T00:47:21;1.45;58.01
70708;SHT30;58277;47.316;18.908;2023-02-28T00:49:45;1.43;57.76
70708;SHT30;58277;47.316;18.908;2023-02-28T00:52:07;1.47;58.25
70708;SHT30;58277;47.316;18.908;2023-02-28T00:54:30;1.56;58.05
70708;SHT30;58277;47.316;18.908;2023-02-28T00:56:53;1.58;57.73
70708;SHT30;58277;47.316;18.908;2023-02-28T00:59:17;1.62;57.94
70708;SHT30;58277;47.316;18.908;2023-02-28T01:01:41;1.71;57.56
70708;SHT30;58277;47.316;18.908;2023-02-28T01:04:04;1.66;57.58
70708;SHT30;58277;47.316;18.908;2023-02-28T01:06:27;1.55;58.02
70708;SHT30;58277;47.316;18.908;2023-02-28T01:08:50;1.69;58.20
70708;SHT30;58277;47.316;18.908;2023-02-28T01:11:15;1.69;57.78
70708;SHT30;58277;47.316;18.908;2023-02-28T01:13:38;1.64;58.08
70708;SHT30;58277;47.316;18.908;2023-02-28T01:16:01;1.55;58.07
70708;SHT30;58277;47.316;18.908;2023-02-28T01:18:24;1.47;58.14
70708;SHT30;58277;47.316;18.908;2023-02-28T01:20:47;1.47;58.75
70708;SHT30;58277;47.316;18.908;2023-02-28T01:23:11;1.45;58.73
70708;SHT30;58277;47.316;18.908;2023-02-28T01:25:35;1.58;58.60
70708;SHT30;58277;47.316;18.908;2023-02-28T01:27:59;1.52;58.43
70708;SHT30;58277;47.316;18.908;2023-02-28T01:30:22;1.44;58.60
70708;SHT30;58277;47.316;18.908;2023-02-28T01:32:44;1.52;58.81
70708;SHT30;58277;47.316;18.908;2023-02-28T01:35:07;1.56;59.09
70708;SHT30;58277;47.316;18.908;2023-02-28T01:37:30;1.51;58.94
70708;SHT30;58277;47.316;18.908;2023-02-28T01:39:54;1.59;58.91
70708;SHT30;58277;47.316;18.908;2023-02-28T01:42:17;1.54;58.44
70708;SHT30;58277;47.316;18.908;2023-02-28T01:47:20;1.73;58.56
70708;SHT30;58277;47.316;18.908;2023-02-28T01:49:44;1.82;58.57
70708;SHT30;58277;47.316;18.908;2023-02-28T01:52:08;1.81;58.59
70708;SHT30;58277;47.316;18.908;2023-02-28T01:54:37;1.92;58.07
70708;SHT30;58277;47.316;18.908;2023-02-28T01:57:13;1.95;58.51
70708;SHT30;58277;47.316;18.908;2023-02-28T01:59:44;1.85;57.85
70708;SHT30;58277;47.316;18.908;2023-02-28T02:02:14;1.89;57.98
70708;SHT30;58277;47.316;18.908;2023-02-28T02:04:42;1.83;57.41
70708;SHT30;58277;47.316;18.908;2023-02-28T02:07:08;1.99;57.33
70708;SHT30;58277;47.316;18.908;2023-02-28T02:09:32;2.03;57.18
70708;SHT30;58277;47.316;18.908;2023-02-28T02:11:55;2.10;56.79
70708;SHT30;58277;47.316;18.908;2023-02-28T02:17:42;1.89;57.31
70708;SHT30;58277;47.316;18.908;2023-02-28T02:28:22;1.86;57.47
70708;SHT30;58277;47.316;18.908;2023-02-28T02:36:08;1.82;57.71
70708;SHT30;58277;47.316;18.908;2023-02-28T02:38:53;1.99;57.36
70708;SHT30;58277;47.316;18.908;2023-02-28T02:41:19;1.89;57.06
70708;SHT30;58277;47.316;18.908;2023-02-28T02:46:14;1.79;58.06
70708;SHT30;58277;47.316;18.908;2023-02-28T02:48:41;1.86;58.17
70708;SHT30;58277;47.316;18.908;2023-02-28T02:51:13;1.87;58.07
70708;SHT30;58277;47.316;18.908;2023-02-28T02:53:50;1.92;57.76
70708;SHT30;58277;47.316;18.908;2023-02-28T02:56:17;2.05;57.38
70708;SHT30;58277;47.316;18.908;2023-02-28T02:58:42;1.93;57.47
70708;SHT30;58277;47.316;18.908;2023-02-28T03:01:06;2.03;57.96
70708;SHT30;58277;47.316;18.908;2023-02-28T03:03:30;1.91;57.72
70708;SHT30;58277;47.316;18.908;2023-02-28T03:05:59;1.82;58.35
70708;SHT30;58277;47.316;18.908;2023-02-28T03:08:22;2.02;58.06
70708;SHT30;58277;47.316;18.908;2023-02-28T03:10:48;2.12;57.67
70708;SHT30;58277;47.316;18.908;2023-02-28T03:24:19;1.82;58.60
70708;SHT30;58277;47.316;18.908;2023-02-28T03:26:52;1.72;59.06
70708;SHT30;58277;47.316;18.908;2023-02-28T03:29:42;1.93;58.60
70708;SHT30;58277;47.316;18.908;2023-02-28T03:32:28;2.07;58.37
70708;SHT30;58277;47.316;18.908;2023-02-28T03:35:09;2.17;57.82
70708;SHT30;58277;47.316;18.908;2023-02-28T03:37:38;2.13;58.41
70708;SHT30;58277;47.316;18.908;2023-02-28T03:40:13;2.19;58.48
70708;SHT30;58277;47.316;18.908;2023-02-28T03:42:38;2.10;58.33
70708;SHT30;58277;47.316;18.908;2023-02-28T03:45:10;2.02;58.88
70708;SHT30;58277;47.316;18.908;2023-02-28T03:47:55;2.12;58.86
70708;SHT30;58277;47.316;18.908;2023-02-28T03:50:24;2.06;58.99
70708;SHT30;58277;47.316;18.908;2023-02-28T03:53:01;2.02;58.93
70708;SHT30;58277;47.316;18.908;2023-02-28T03:55:32;1.92;59.03
70708;SHT30;58277;47.316;18.908;2023-02-28T04:00:34;1.86;59.55
70708;SHT30;58277;47.316;18.908;2023-02-28T04:02:58;1.79;59.97
70708;SHT30;58277;47.316;18.908;2023-02-28T04:05:21;1.93;59.55
70708;SHT30;58277;47.316;18.908;2023-02-28T04:07:44;1.86;59.71
70708;SHT30;58277;47.316;18.908;2023-02-28T04:10:09;1.93;59.68
70708;SHT30;58277;47.316;18.908;2023-02-28T04:12:33;1.81;59.02
70708;SHT30;58277;47.316;18.908;2023-02-28T04:14:56;1.66;59.85
70708;SHT30;58277;47.316;18.908;2023-02-28T04:17:18;1.65;59.94
70708;SHT30;58277;47.316;18.908;2023-02-28T04:19:42;1.65;59.75
70708;SHT30;58277;47.316;18.908;2023-02-28T04:22:04;1.73;59.95
70708;SHT30;58277;47.316;18.908;2023-02-28T04:24:27;1.86;59.80
70708;SHT30;58277;47.316;18.908;2023-02-28T04:26:52;1.91;59.60
70708;SHT30;58277;47.316;18.908;2023-02-28T04:29:23;1.75;60.01
70708;SHT30;58277;47.316;18.908;2023-02-28T04:31:46;1.69;59.90
70708;SHT30;58277;47.316;18.908;2023-02-28T04:34:09;1.76;59.72
70708;SHT30;58277;47.316;18.908;2023-02-28T04:36:32;1.75;59.83
70708;SHT30;58277;47.316;18.908;2023-02-28T04:38:55;1.86;60.43
70708;SHT30;58277;47.316;18.908;2023-02-28T04:41:18;1.79;59.89
70708;SHT30;58277;47.316;18.908;2023-02-28T04:43:41;1.78;59.62
70708;SHT30;58277;47.316;18.908;2023-02-28T04:46:04;1.87;58.90
70708;SHT30;58277;47.316;18.908;2023-02-28T04:48:29;1.85;59.08
70708;SHT30;58277;47.316;18.908;2023-02-28T04:50:52;1.93;58.84
70708;SHT30;58277;47.316;18.908;2023-02-28T04:53:15;1.85;58.38
70708;SHT30;58277;47.316;18.908;2023-02-28T04:55:37;1.75;57.95
70708;SHT30;58277;47.316;18.908;2023-02-28T04:58:02;1.78;58.13
70708;SHT30;58277;47.316;18.908;2023-02-28T05:00:25;1.75;58.57
70708;SHT30;58277;47.316;18.908;2023-02-28T05:02:48;1.85;58.55
70708;SHT30;58277;47.316;18.908;2023-02-28T05:05:10;1.72;57.63
70708;SHT30;58277;47.316;18.908;2023-02-28T05:07:34;1.81;57.16
70708;SHT30;58277;47.316;18.908;2023-02-28T05:09:57;1.89;57.13
70708;SHT30;58277;47.316;18.908;2023-02-28T05:12:19;1.86;57.10
70708;SHT30;58277;47.316;18.908;2023-02-28T05:14:42;1.73;56.93
70708;SHT30;58277;47.316;18.908;2023-02-28T05:17:06;1.72;57.40
70708;SHT30;58277;47.316;18.908;2023-02-28T05:19:29;1.79;57.73
70708;SHT30;58277;47.316;18.908;2023-02-28T05:21:54;1.83;56.28
70708;SHT30;58277;47.316;18.908;2023-02-28T05:24:17;1.96;56.72
70708;SHT30;58277;47.316;18.908;2023-02-28T05:26:45;1.86;56.25
70708;SHT30;58277;47.316;18.908;2023-02-28T05:29:09;1.79;56.23
70708;SHT30;58277;47.316;18.908;2023-02-28T05:31:32;1.81;56.41
70708;SHT30;58277;47.316;18.908;2023-02-28T05:33:55;2.06;55.93
70708;SHT30;58277;47.316;18.908;2023-02-28T05:36:18;2.09;55.37
70708;SHT30;58277;47.316;18.908;2023-02-28T05:38:40;2.17;55.14
70708;SHT30;58277;47.316;18.908;2023-02-28T05:41:10;1.99;55.46
70708;SHT30;58277;47.316;18.908;2023-02-28T05:43:34;2.16;55.71
70708;SHT30;58277;47.316;18.908;2023-02-28T05:45:56;2.21;54.82
70708;SHT30;58277;47.316;18.908;2023-02-28T05:48:19;2.16;55.11
70708;SHT30;58277;47.316;18.908;2023-02-28T05:50:42;2.14;54.92
70708;SHT30;58277;47.316;18.908;2023-02-28T05:53:07;2.13;54.63
70708;SHT30;58277;47.316;18.908;2023-02-28T05:55:29;2.02;55.20
70708;SHT30;58277;47.316;18.908;2023-02-28T05:57:55;2.02;55.29
70708;SHT30;58277;47.316;18.908;2023-02-28T06:00:18;2.06;55.80
70708;SHT30;58277;47.316;18.908;2023-02-28T06:02:41;2.13;55.72
70708;SHT30;58277;47.316;18.908;2023-02-28T06:05:04;2.29;55.20
70708;SHT30;58277;47.316;18.908;2023-02-28T06:07:27;2.33;55.43
70708;SHT30;58277;47.316;18.908;2023-02-28T06:09:50;2.38;55.84
70708;SHT30;58277;47.316;18.908;2023-02-28T06:12:13;2.40;54.59
70708;SHT30;58277;47.316;18.908;2023-02-28T06:14:36;2.52;55.12
70708;SHT30;58277;47.316;18.908;2023-02-28T06:16:59;2.66;54.48
70708;SHT30;58277;47.316;18.908;2023-02-28T06:19:23;2.69;54.69
70708;SHT30;58277;47.316;18.908;2023-02-28T06:21:49;2.69;54.05
70708;SHT30;58277;47.316;18.908;2023-02-28T06:24:15;2.74;54.67
70708;SHT30;58277;47.316;18.908;2023-02-28T06:26:37;2.96;53.51
70708;SHT30;58277;47.316;18.908;2023-02-28T06:29:00;3.00;53.64
70708;SHT30;58277;47.316;18.908;2023-02-28T06:31:23;3.17;53.57
70708;SHT30;58277;47.316;18.908;2023-02-28T06:33:48;3.27;53.88
70708;SHT30;58277;47.316;18.908;2023-02-28T06:36:12;3.46;54.11
70708;SHT30;58277;47.316;18.908;2023-02-28T06:38:36;3.24;53.63
70708;SHT30;58277;47.316;18.908;2023-02-28T06:41:00;3.31;53.99
70708;SHT30;58277;47.316;18.908;2023-02-28T06:43:24;3.28;53.68
70708;SHT30;58277;47.316;18.908;2023-02-28T06:45:47;3.54;53.21
70708;SHT30;58277;47.316;18.908;2023-02-28T06:48:09;3.41;53.97
70708;SHT30;58277;47.316;18.908;2023-02-28T06:50:33;3.61;54.02
70708;SHT30;58277;47.316;18.908;2023-02-28T06:52:56;3.70;53.30
70708;SHT30;58277;47.316;18.908;2023-02-28T06:55:18;3.73;52.93
70708;SHT30;58277;47.316;18.908;2023-02-28T06:57:41;3.68;52.81
70708;SHT30;58277;47.316;18.908;2023-02-28T07:00:07;3.74;53.53
70708;SHT30;58277;47.316;18.908;2023-02-28T07:02:31;4.02;51.85
70708;SHT30;58277;47.316;18.908;2023-02-28T07:04:54;4.10;51.37
70708;SHT30;58277;47.316;18.908;2023-02-28T07:07:16;4.26;51.37
70708;SHT30;58277;47.316;18.908;2023-02-28T07:09:40;4.16;50.40
70708;SHT30;58277;47.316;18.908;2023-02-28T07:12:03;4.02;50.91
70708;SHT30;58277;47.316;18.908;2023-02-28T07:14:25;3.89;52.03
70708;SHT30;58277;47.316;18.908;2023-02-28T07:16:49;4.17;51.66
70708;SHT30;58277;47.316;18.908;2023-02-28T07:19:12;4.22;50.85
70708;SHT30;58277;47.316;18.908;2023-02-28T07:21:35;4.02;51.32
70708;SHT30;58277;47.316;18.908;2023-02-28T07:23:58;4.13;51.72
70708;SHT30;58277;47.316;18.908;2023-02-28T07:26:21;4.16;50.43
70708;SHT30;58277;47.316;18.908;2023-02-28T07:28:46;4.23;50.25
70708;SHT30;58277;47.316;18.908;2023-02-28T07:31:09;4.46;49.97
70708;SHT30;58277;47.316;18.908;2023-02-28T07:33:33;4.60;50.56
70708;SHT30;58277;47.316;18.908;2023-02-28T07:36:14;4.78;49.12
70708;SHT30;58277;47.316;18.908;2023-02-28T07:38:38;4.92;48.87
70708;SHT30;58277;47.316;18.908;2023-02-28T07:41:01;4.75;48.32
70708;SHT30;58277;47.316;18.908;2023-02-28T07:43:26;4.56;49.08
70708;SHT30;58277;47.316;18.908;2023-02-28T07:45:49;4.75;49.11
70708;SHT30;58277;47.316;18.908;2023-02-28T07:48:12;4.71;48.90
70708;SHT30;58277;47.316;18.908;2023-02-28T07:50:35;4.77;48.53
70708;SHT30;58277;47.316;18.908;2023-02-28T07:52:59;4.78;49.17
70708;SHT30;58277;47.316;18.908;2023-02-28T07:55:22;4.82;49.42
70708;SHT30;58277;47.316;18.908;2023-02-28T07:57:44;5.09;47.90
70708;SHT30;58277;47.316;18.908;2023-02-28T08:00:09;5.29;47.65
70708;SHT30;58277;47.316;18.908;2023-02-28T08:02:36;5.75;46.64
70708;SHT30;58277;47.316;18.908;2023-02-28T08:04:59;5.42;46.58
70708;SHT30;58277;47.316;18.908;2023-02-28T08:07:43;5.92;45.07
70708;SHT30;58277;47.316;18.908;2023-02-28T08:10:26;6.36;43.56
70708;SHT30;58277;47.316;18.908;2023-02-28T08:12:49;6.05;44.72
70708;SHT30;58277;47.316;18.908;2023-02-28T08:15:12;6.12;45.01
70708;SHT30;58277;47.316;18.908;2023-02-28T08:17:35;5.85;44.84
70708;SHT30;58277;47.316;18.908;2023-02-28T08:19:58;5.75;46.36
70708;SHT30;58277;47.316;18.908;2023-02-28T08:22:23;5.12;46.49
70708;SHT30;58277;47.316;18.908;2023-02-28T08:24:45;5.12;47.12
70708;SHT30;58277;47.316;18.908;2023-02-28T08:27:09;5.26;46.84
70708;SHT30;58277;47.316;18.908;2023-02-28T08:29:32;5.02;47.65
70708;SHT30;58277;47.316;18.908;2023-02-28T08:31:55;4.61;48.04
70708;SHT30;58277;47.316;18.908;2023-02-28T08:34:18;4.30;49.05
70708;SHT30;58277;47.316;18.908;2023-02-28T08:36:41;4.41;49.24
70708;SHT30;58277;47.316;18.908;2023-02-28T08:39:05;4.60;48.40
70708;SHT30;58277;47.316;18.908;2023-02-28T08:41:28;4.71;48.40
70708;SHT30;58277;47.316;18.908;2023-02-28T08:43:52;4.87;47.92
70708;SHT30;58277;47.316;18.908;2023-02-28T08:46:15;5.22;46.63
70708;SHT30;58277;47.316;18.908;2023-02-28T08:48:39;5.06;47.00
70708;SHT30;58277;47.316;18.908;2023-02-28T08:51:08;5.42;46.52
70708;SHT30;58277;47.316;18.908;2023-02-28T08:53:32;5.15;46.76
70708;SHT30;58277;47.316;18.908;2023-02-28T08:56:09;4.85;47.62
70708;SHT30;58277;47.316;18.908;2023-02-28T08:58:32;4.51;48.70
70708;SHT30;58277;47.316;18.908;2023-02-28T09:00:57;4.99;47.85
70708;SHT30;58277;47.316;18.908;2023-02-28T09:03:22;5.12;47.29
70708;SHT30;58277;47.316;18.908;2023-02-28T09:05:57;5.16;46.76
70708;SHT30;58277;47.316;18.908;2023-02-28T09:08:20;5.42;45.85
70708;SHT30;58277;47.316;18.908;2023-02-28T09:10:43;5.35;46.25
70708;SHT30;58277;47.316;18.908;2023-02-28T09:13:06;5.26;46.67
70708;SHT30;58277;47.316;18.908;2023-02-28T09:15:29;4.67;48.19
70708;SHT30;58277;47.316;18.908;2023-02-28T09:17:52;4.70;48.25
70708;SHT30;58277;47.316;18.908;2023-02-28T09:20:15;4.57;48.68
70708;SHT30;58277;47.316;18.908;2023-02-28T09:22:38;4.65;48.85
70708;SHT30;58277;47.316;18.908;2023-02-28T09:25:01;4.89;48.73
70708;SHT30;58277;47.316;18.908;2023-02-28T09:27:24;4.98;49.34
70708;SHT30;58277;47.316;18.908;2023-02-28T09:29:47;4.87;48.74
70708;SHT30;58277;47.316;18.908;2023-02-28T09:32:10;4.91;47.81
70708;SHT30;58277;47.316;18.908;2023-02-28T09:34:33;5.11;47.42
70708;SHT30;58277;47.316;18.908;2023-02-28T09:36:57;5.02;48.34
70708;SHT30;58277;47.316;18.908;2023-02-28T09:39:22;5.16;48.09
70708;SHT30;58277;47.316;18.908;2023-02-28T09:41:50;5.08;48.18
70708;SHT30;58277;47.316;18.908;2023-02-28T09:44:35;5.33;48.13
70708;SHT30;58277;47.316;18.908;2023-02-28T09:47:05;5.37;46.76
70708;SHT30;58277;47.316;18.908;2023-02-28T09:49:39;5.39;46.50
70708;SHT30;58277;47.316;18.908;2023-02-28T09:52:09;5.58;46.11
70708;SHT30;58277;47.316;18.908;2023-02-28T09:54:33;5.74;46.21
70708;SHT30;58277;47.316;18.908;2023-02-28T10:00:36;5.95;46.97
70708;SHT30;58277;47.316;18.908;2023-02-28T10:05:27;5.85;46.26
70708;SHT30;58277;47.316;18.908;2023-02-28T10:08:05;5.61;46.22
70708;SHT30;58277;47.316;18.908;2023-02-28T10:10:50;5.81;46.74
70708;SHT30;58277;47.316;18.908;2023-02-28T10:13:32;5.95;46.73
70708;SHT30;58277;47.316;18.908;2023-02-28T10:16:01;5.97;46.67
70708;SHT30;58277;47.316;18.908;2023-02-28T10:19:22;6.09;46.73
70708;SHT30;58277;47.316;18.908;2023-02-28T10:21:34;6.12;46.06
70708;SHT30;58277;47.316;18.908;2023-02-28T10:24:34;5.91;46.83
70708;SHT30;58277;47.316;18.908;2023-02-28T10:27:10;6.16;46.29
70708;SHT30;58277;47.316;18.908;2023-02-28T10:29:35;6.39;46.41
70708;SHT30;58277;47.316;18.908;2023-02-28T10:32:01;6.08;46.51
70708;SHT30;58277;47.316;18.908;2023-02-28T10:34:25;6.22;46.15
70708;SHT30;58277;47.316;18.908;2023-02-28T10:36:49;6.37;46.11
70708;SHT30;58277;47.316;18.908;2023-02-28T10:39:35;6.80;46.33
70708;SHT30;58277;47.316;18.908;2023-02-28T10:42:00;6.99;45.33
70708;SHT30;58277;47.316;18.908;2023-02-28T10:44:23;7.22;45.22
70708;SHT30;58277;47.316;18.908;2023-02-28T10:46:48;7.12;44.88
70708;SHT30;58277;47.316;18.908;2023-02-28T10:49:19;6.90;45.16
70708;SHT30;58277;47.316;18.908;2023-02-28T10:51:44;6.98;44.83
70708;SHT30;58277;47.316;18.908;2023-02-28T10:54:19;7.19;44.90
70708;SHT30;58277;47.316;18.908;2023-02-28T10:56:42;7.47;45.52
70708;SHT30;58277;47.316;18.908;2023-02-28T11:01:41;7.97;43.15
70708;SHT30;58277;47.316;18.908;2023-02-28T11:06:42;7.49;44.32
70708;SHT30;58277;47.316;18.908;2023-02-28T11:09:27;7.56;44.58
70708;SHT30;58277;47.316;18.908;2023-02-28T11:11:52;7.47;44.26
70708;SHT30;58277;47.316;18.908;2023-02-28T11:14:24;6.84;45.61
70708;SHT30;58277;47.316;18.908;2023-02-28T11:16:49;6.77;45.98
70708;SHT30;58277;47.316;18.908;2023-02-28T11:19:37;7.05;45.23
70708;SHT30;58277;47.316;18.908;2023-02-28T11:22:02;6.92;45.51
70708;SHT30;58277;47.316;18.908;2023-02-28T11:24:40;7.18;45.46
70708;SHT30;58277;47.316;18.908;2023-02-28T11:27:04;7.53;44.58
70708;SHT30;58277;47.316;18.908;2023-02-28T11:29:29;7.74;43.76
70708;SHT30;58277;47.316;18.908;2023-02-28T11:32:03;7.77;44.84
70708;SHT30;58277;47.316;18.908;2023-02-28T11:34:27;7.56;44.22
70708;SHT30;58277;47.316;18.908;2023-02-28T11:36:51;7.52;44.03
70708;SHT30;58277;47.316;18.908;2023-02-28T11:39:20;6.99;45.36
70708;SHT30;58277;47.316;18.908;2023-02-28T11:47:22;6.57;46.80
70708;SHT30;58277;47.316;18.908;2023-02-28T12:06:20;7.42;45.14
70708;SHT30;58277;47.316;18.908;2023-02-28T12:14:41;6.83;47.50
70708;SHT30;58277;47.316;18.908;2023-02-28T12:17:40;6.74;47.30
70708;SHT30;58277;47.316;18.908;2023-02-28T12:19:55;7.01;47.16
70708;SHT30;58277;47.316;18.908;2023-02-28T12:27:34;7.16;47.11
70708;SHT30;58277;47.316;18.908;2023-02-28T12:32:41;6.64;47.70
70708;SHT30;58277;47.316;18.908;2023-02-28T12:35:13;6.47;47.66
70708;SHT30;58277;47.316;18.908;2023-02-28T12:38:02;6.47;47.97
70708;SHT30;58277;47.316;18.908;2023-02-28T12:40:44;6.50;48.08
70708;SHT30;58277;47.316;18.908;2023-02-28T12:43:09;6.69;47.73
70708;SHT30;58277;47.316;18.908;2023-02-28T12:45:45;6.98;47.05
70708;SHT30;58277;47.316;18.908;2023-02-28T12:48:15;7.02;47.29
70708;SHT30;58277;47.316;18.908;2023-02-28T12:50:40;7.11;47.04
70708;SHT30;58277;47.316;18.908;2023-02-28T12:55:43;7.01;48.04
70708;SHT30;58277;47.316;18.908;2023-02-28T13:00:44;6.84;47.06
70708;SHT30;58277;47.316;18.908;2023-02-28T13:03:37;6.94;47.62
70708;SHT30;58277;47.316;18.908;2023-02-28T13:09:04;7.20;47.66
70708;SHT30;58277;47.316;18.908;2023-02-28T13:11:43;7.14;47.14
70708;SHT30;58277;47.316;18.908;2023-02-28T13:19:21;7.52;47.77
70708;SHT30;58277;47.316;18.908;2023-02-28T13:21:47;7.36;46.19
70708;SHT30;58277;47.316;18.908;2023-02-28T13:29:41;7.30;47.54
70708;SHT30;58277;47.316;18.908;2023-02-28T13:34:42;7.25;47.73
70708;SHT30;58277;47.316;18.908;2023-02-28T13:39:57;7.19;47.84
70708;SHT30;58277;47.316;18.908;2023-02-28T13:42:22;7.47;46.86
70708;SHT30;58277;47.316;18.908;2023-02-28T13:55:34;7.95;46.31
70708;SHT30;58277;47.316;18.908;2023-02-28T14:05:31;7.29;47.48
70708;SHT30;58277;47.316;18.908;2023-02-28T14:08:04;7.35;47.26
70708;SHT30;58277;47.316;18.908;2023-02-28T14:10:32;7.39;47.45
70708;SHT30;58277;47.316;18.908;2023-02-28T14:13:11;7.25;47.95
70708;SHT30;58277;47.316;18.908;2023-02-28T14:16:04;7.15;48.10
70708;SHT30;58277;47.316;18.908;2023-02-28T14:21:02;7.20;48.43
70708;SHT30;58277;47.316;18.908;2023-02-28T14:26:55;6.99;50.23
70708;SHT30;58277;47.316;18.908;2023-02-28T14:29:27;6.98;50.47
70708;SHT30;58277;47.316;18.908;2023-02-28T14:31:58;7.09;50.15
70708;SHT30;58277;47.316;18.908;2023-02-28T14:37:03;6.90;50.08
70708;SHT30;58277;47.316;18.908;2023-02-28T14:39:27;6.74;50.55
70708;SHT30;58277;47.316;18.908;2023-02-28T14:41:53;6.90;50.79
70708;SHT30;58277;47.316;18.908;2023-02-28T14:44:19;6.90;50.55
70708;SHT30;58277;47.316;18.908;2023-02-28T14:46:43;6.76;51.09
70708;SHT30;58277;47.316;18.908;2023-02-28T14:49:15;6.80;52.39
70708;SHT30;58277;47.316;18.908;2023-02-28T14:51:39;6.81;52.89
70708;SHT30;58277;47.316;18.908;2023-02-28T14:54:03;6.78;53.14
70708;SHT30;58277;47.316;18.908;2023-02-28T14:56:32;6.74;53.05
70708;SHT30;58277;47.316;18.908;2023-02-28T14:58:57;6.78;53.69
70708;SHT30;58277;47.316;18.908;2023-02-28T15:01:22;6.70;52.88
70708;SHT30;58277;47.316;18.908;2023-02-28T15:03:45;6.63;53.43
70708;SHT30;58277;47.316;18.908;2023-02-28T15:06:15;6.76;53.31
70708;SHT30;58277;47.316;18.908;2023-02-28T15:08:40;6.71;53.46
70708;SHT30;58277;47.316;18.908;2023-02-28T15:11:15;6.57;53.58
70708;SHT30;58277;47.316;18.908;2023-02-28T15:13:42;6.50;53.25
70708;SHT30;58277;47.316;18.908;2023-02-28T15:16:44;6.44;54.30
70708;SHT30;58277;47.316;18.908;2023-02-28T15:19:17;6.43;54.38
70708;SHT30;58277;47.316;18.908;2023-02-28T15:21:45;6.26;54.57
70708;SHT30;58277;47.316;18.908;2023-02-28T15:26:46;6.09;55.28
70708;SHT30;58277;47.316;18.908;2023-02-28T15:29:19;6.01;55.41
70708;SHT30;58277;47.316;18.908;2023-02-28T15:31:45;5.98;55.94
70708;SHT30;58277;47.316;18.908;2023-02-28T15:36:58;5.90;56.47
70708;SHT30;58277;47.316;18.908;2023-02-28T15:39:26;5.85;56.11
70708;SHT30;58277;47.316;18.908;2023-02-28T15:41:52;5.91;56.40
70708;SHT30;58277;47.316;18.908;2023-02-28T15:44:28;5.88;57.17
70708;SHT30;58277;47.316;18.908;2023-02-28T15:47:18;5.90;56.37
70708;SHT30;58277;47.316;18.908;2023-02-28T15:49:51;5.77;56.72
70708;SHT30;58277;47.316;18.908;2023-02-28T15:52:17;5.74;56.62
70708;SHT30;58277;47.316;18.908;2023-02-28T15:54:41;5.75;56.81
70708;SHT30;58277;47.316;18.908;2023-02-28T15:57:06;5.73;56.87
70708;SHT30;58277;47.316;18.908;2023-02-28T15:59:31;5.67;56.52
70708;SHT30;58277;47.316;18.908;2023-02-28T16:02:18;5.64;57.25
70708;SHT30;58277;47.316;18.908;2023-02-28T16:04:59;5.57;57.76
70708;SHT30;58277;47.316;18.908;2023-02-28T16:07:22;5.53;57.75
70708;SHT30;58277;47.316;18.908;2023-02-28T16:09:49;5.53;57.91
70708;SHT30;58277;47.316;18.908;2023-02-28T16:12:12;5.57;58.03
70708;SHT30;58277;47.316;18.908;2023-02-28T16:14:36;5.63;58.64
70708;SHT30;58277;47.316;18.908;2023-02-28T16:17:06;5.65;57.67
70708;SHT30;58277;47.316;18.908;2023-02-28T16:19:33;5.60;57.94
70708;SHT30;58277;47.316;18.908;2023-02-28T16:21:56;5.46;57.81
70708;SHT30;58277;47.316;18.908;2023-02-28T16:24:19;5.42;57.86
70708;SHT30;58277;47.316;18.908;2023-02-28T16:26:47;5.44;58.23
70708;SHT30;58277;47.316;18.908;2023-02-28T16:29:18;5.43;58.50
70708;SHT30;58277;47.316;18.908;2023-02-28T16:31:43;5.43;58.18
70708;SHT30;58277;47.316;18.908;2023-02-28T16:34:06;5.46;58.83
70708;SHT30;58277;47.316;18.908;2023-02-28T16:36:29;5.46;58.61
70708;SHT30;58277;47.316;18.908;2023-02-28T16:38:54;5.42;58.76
70708;SHT30;58277;47.316;18.908;2023-02-28T16:41:26;5.40;58.91
70708;SHT30;58277;47.316;18.908;2023-02-28T16:43:52;5.39;58.89
70708;SHT30;58277;47.316;18.908;2023-02-28T16:46:16;5.42;59.04
70708;SHT30;58277;47.316;18.908;2023-02-28T16:48:39;5.40;59.11
70708;SHT30;58277;47.316;18.908;2023-02-28T16:51:03;5.39;59.20
70708;SHT30;58277;47.316;18.908;2023-02-28T16:53:26;5.46;59.24
70708;SHT30;58277;47.316;18.908;2023-02-28T16:55:49;5.44;59.61
70708;SHT30;58277;47.316;18.908;2023-02-28T16:58:15;5.42;59.62
70708;SHT30;58277;47.316;18.908;2023-02-28T17:00:38;5.40;59.65
70708;SHT30;58277;47.316;18.908;2023-02-28T17:03:02;5.37;59.87
70708;SHT30;58277;47.316;18.908;2023-02-28T17:05:36;5.36;60.05
70708;SHT30;58277;47.316;18.908;2023-02-28T17:08:00;5.33;60.36
70708;SHT30;58277;47.316;18.908;2023-02-28T17:10:25;5.32;60.76
70708;SHT30;58277;47.316;18.908;2023-02-28T17:12:48;5.32;60.83
70708;SHT30;58277;47.316;18.908;2023-02-28T17:15:13;5.35;60.87
70708;SHT30;58277;47.316;18.908;2023-02-28T17:17:36;5.35;60.84
70708;SHT30;58277;47.316;18.908;2023-02-28T17:20:03;5.32;60.94
70708;SHT30;58277;47.316;18.908;2023-02-28T17:22:28;5.33;60.84
70708;SHT30;58277;47.316;18.908;2023-02-28T17:24:51;5.35;61.11
70708;SHT30;58277;47.316;18.908;2023-02-28T17:27:18;5.32;61.47
70708;SHT30;58277;47.316;18.908;2023-02-28T17:29:41;5.30;61.57
70708;SHT30;58277;47.316;18.908;2023-02-28T17:32:04;5.25;61.75
70708;SHT30;58277;47.316;18.908;2023-02-28T17:34:38;5.26;61.52
70708;SHT30;58277;47.316;18.908;2023-02-28T17:37:01;5.26;62.19
70708;SHT30;58277;47.316;18.908;2023-02-28T17:39:25;5.29;62.38
70708;SHT30;58277;47.316;18.908;2023-02-28T17:41:48;5.33;61.97
70708;SHT30;58277;47.316;18.908;2023-02-28T17:44:11;5.30;61.89
70708;SHT30;58277;47.316;18.908;2023-02-28T17:46:34;5.27;62.46